createdAt,value
2022-09-14T00:02:15.827Z,17.90
2022-09-14T00:04:47.727Z,17.90
2022-09-14T00:07:17.889Z,17.90
2022-09-14T00:09:47.150Z,17.90
2022-09-14T00:12:16.263Z,17.80
2022-09-14T00:14:46.808Z,17.80
2022-09-14T00:17:18.190Z,17.70
2022-09-14T00:19:47.246Z,17.40
2022-09-14T00:22:18.002Z,17.40
2022-09-14T00:24:49.681Z,17.50
2022-09-14T00:27:18.831Z,17.50
2022-09-14T00:29:49.345Z,17.50
2022-09-14T00:32:18.301Z,17.60
2022-09-14T00:34:50.514Z,17.60
2022-09-14T00:37:20.885Z,17.50
2022-09-14T00:39:49.812Z,17.50
2022-09-14T00:42:20.699Z,17.50
2022-09-14T00:45:08.454Z,17.50
2022-09-14T00:47:40.738Z,17.50
2022-09-14T00:50:11.358Z,17.40
2022-09-14T00:52:44.519Z,17.40
2022-09-14T00:55:15.653Z,17.40
2022-09-14T00:57:48.073Z,17.30
2022-09-14T01:00:20.646Z,17.30
2022-09-14T01:02:49.635Z,17.30
2022-09-14T01:05:19.285Z,17.30
2022-09-14T01:08:13.744Z,17.30
2022-09-14T01:10:55.152Z,17.30
2022-09-14T01:13:35.286Z,17.30
2022-09-14T01:16:11.967Z,17.30
2022-09-14T01:18:47.053Z,17.40
2022-09-14T01:21:21.810Z,17.30
2022-09-14T01:24:00.994Z,17.30
2022-09-14T01:26:46.117Z,17.30
2022-09-14T01:29:24.134Z,17.30
2022-09-14T01:31:57.258Z,17.20
2022-09-14T01:34:33.392Z,17.20
2022-09-14T01:37:13.079Z,17.10
2022-09-14T01:39:45.951Z,17.20
2022-09-14T01:42:16.472Z,17.20
2022-09-14T01:44:55.101Z,17.30
2022-09-14T01:47:29.733Z,17.20
2022-09-14T01:50:04.290Z,17.20
2022-09-14T01:52:41.894Z,17.20
2022-09-14T01:55:17.174Z,17.20
2022-09-14T01:58:05.987Z,17.10
2022-09-14T02:00:44.317Z,17.10
2022-09-14T02:03:16.607Z,17.00
2022-09-14T02:05:52.631Z,17.00
2022-09-14T02:08:24.790Z,16.90
2022-09-14T02:10:53.829Z,16.90
2022-09-14T02:13:23.214Z,16.80
2022-09-14T02:15:53.739Z,16.70
2022-09-14T02:18:23.333Z,16.60
2022-09-14T02:20:56.000Z,16.60
2022-09-14T02:23:25.486Z,16.50
2022-09-14T02:25:54.449Z,16.50
2022-09-14T02:28:23.384Z,16.40
2022-09-14T02:31:04.649Z,16.30
2022-09-14T02:33:41.947Z,16.30
2022-09-14T02:36:18.785Z,16.20
2022-09-14T02:38:53.225Z,16.10
2022-09-14T02:41:34.705Z,16.10
2022-09-14T02:44:11.283Z,16.10
2022-09-14T02:46:54.272Z,16.00
2022-09-14T02:49:36.265Z,15.80
2022-09-14T02:52:12.499Z,15.90
2022-09-14T02:54:48.402Z,15.90
2022-09-14T02:57:17.314Z,15.80
2022-09-14T02:59:47.519Z,15.90
2022-09-14T03:02:21.574Z,15.90
2022-09-14T03:04:50.286Z,16.00
2022-09-14T03:07:18.932Z,16.00
2022-09-14T03:09:48.260Z,15.90
2022-09-14T03:12:16.807Z,16.00
2022-09-14T03:14:49.460Z,16.00
2022-09-14T03:17:19.757Z,16.00
2022-09-14T03:19:48.540Z,16.00
2022-09-14T03:22:17.577Z,15.90
2022-09-14T03:24:46.802Z,15.90
2022-09-14T03:27:15.768Z,15.90
2022-09-14T03:29:44.333Z,15.90
2022-09-14T03:32:13.305Z,16.00
2022-09-14T03:34:47.298Z,15.90
2022-09-14T03:37:16.083Z,15.90
2022-09-14T03:39:47.705Z,15.80
2022-09-14T03:42:16.592Z,15.80
2022-09-14T03:44:45.514Z,15.70
2022-09-14T03:47:15.042Z,15.70
2022-09-14T03:49:45.230Z,15.60
2022-09-14T03:52:14.273Z,15.70
2022-09-14T03:54:45.421Z,15.60
2022-09-14T03:57:14.515Z,15.60
2022-09-14T03:59:46.467Z,15.60
2022-09-14T04:02:18.626Z,15.60
2022-09-14T04:04:53.933Z,15.60
2022-09-14T04:07:22.867Z,15.60
2022-09-14T04:09:51.824Z,15.60
2022-09-14T04:12:20.890Z,15.60
2022-09-14T04:14:50.143Z,15.60
2022-09-14T04:17:22.492Z,15.60
2022-09-14T04:19:53.057Z,15.60
2022-09-14T04:22:22.293Z,15.60
2022-09-14T04:24:57.302Z,15.60
2022-09-14T04:27:28.591Z,15.60
2022-09-14T04:30:00.929Z,15.50
2022-09-14T04:32:34.107Z,15.50
2022-09-14T04:35:05.178Z,15.50
2022-09-14T04:37:34.213Z,15.40
2022-09-14T04:40:03.280Z,15.40
2022-09-14T04:42:32.242Z,15.30
2022-09-14T04:45:01.277Z,15.30
2022-09-14T04:47:33.643Z,15.30
2022-09-14T04:50:04.183Z,15.30
2022-09-14T04:52:32.930Z,15.30
2022-09-14T04:55:01.820Z,15.30
2022-09-14T04:57:31.209Z,15.30
2022-09-14T05:00:03.363Z,15.20
2022-09-14T05:02:32.477Z,15.20
2022-09-14T05:05:01.900Z,15.20
2022-09-14T05:07:32.088Z,15.20
2022-09-14T05:10:00.909Z,15.20
2022-09-14T05:12:30.777Z,15.20
2022-09-14T05:14:59.497Z,15.10
2022-09-14T05:17:28.127Z,15.10
2022-09-14T05:19:57.054Z,15.30
2022-09-14T05:22:25.978Z,15.40
2022-09-14T05:24:59.241Z,15.40
2022-09-14T05:27:27.897Z,15.50
2022-09-14T05:29:56.589Z,15.40
2022-09-14T05:32:29.529Z,15.50
2022-09-14T05:35:00.228Z,15.50
2022-09-14T05:37:28.998Z,15.60
2022-09-14T05:40:00.347Z,15.60
2022-09-14T05:42:30.060Z,15.60
2022-09-14T05:44:58.746Z,15.70
2022-09-14T05:47:27.429Z,16.00
2022-09-14T05:49:56.174Z,16.00
2022-09-14T05:52:25.207Z,16.10
2022-09-14T05:54:54.118Z,16.20
2022-09-14T05:57:24.899Z,16.10
2022-09-14T05:59:53.627Z,16.00
2022-09-14T06:02:22.413Z,16.00
2022-09-14T06:04:51.133Z,16.20
2022-09-14T06:07:19.837Z,16.20
2022-09-14T06:09:48.421Z,16.10
2022-09-14T06:12:20.287Z,16.10
2022-09-14T06:14:50.491Z,16.00
2022-09-14T06:17:19.320Z,15.90
2022-09-14T06:19:48.290Z,15.90
2022-09-14T06:22:17.033Z,15.70
2022-09-14T06:24:45.825Z,15.70
2022-09-14T06:27:15.549Z,15.80
2022-09-14T06:29:44.414Z,15.80
2022-09-14T06:32:14.435Z,15.80
2022-09-14T06:34:43.066Z,15.80
2022-09-14T06:37:15.056Z,15.80
2022-09-14T06:39:43.885Z,15.80
2022-09-14T06:42:12.910Z,15.90
2022-09-14T06:44:45.976Z,15.90
2022-09-14T06:47:16.667Z,16.00
2022-09-14T06:49:45.670Z,16.00
2022-09-14T06:52:14.278Z,16.10
2022-09-14T06:54:43.002Z,16.00
2022-09-14T06:57:11.783Z,15.90
2022-09-14T06:59:40.709Z,15.90
2022-09-14T07:02:12.417Z,15.90
2022-09-14T07:04:42.679Z,15.90
2022-09-14T07:07:11.745Z,15.90
2022-09-14T07:09:44.679Z,15.70
2022-09-14T07:12:13.165Z,15.90
2022-09-14T07:14:43.182Z,16.00
2022-09-14T07:17:12.339Z,16.00
2022-09-14T07:19:43.466Z,15.90
2022-09-14T07:22:12.204Z,15.80
2022-09-14T07:24:41.868Z,15.80
2022-09-14T07:27:10.764Z,15.70
2022-09-14T07:29:40.266Z,15.80
2022-09-14T07:35:48.518Z,16.00
2022-09-14T07:38:35.804Z,16.10
2022-09-14T07:41:29.102Z,16.10
2022-09-14T07:44:20.862Z,16.00
2022-09-14T07:50:08.667Z,16.00
2022-09-14T07:53:30.447Z,16.00
2022-09-14T07:56:22.939Z,16.00
2022-09-14T07:59:35.676Z,16.20
2022-09-14T08:02:22.656Z,16.20
2022-09-14T08:05:15.783Z,16.10
2022-09-14T08:08:22.672Z,16.00
2022-09-14T08:11:28.568Z,16.00
2022-09-14T08:14:17.658Z,16.00
2022-09-14T08:17:03.148Z,16.00
2022-09-14T08:19:46.584Z,15.90
2022-09-14T08:22:52.144Z,15.90
2022-09-14T08:25:44.941Z,16.00
2022-09-14T08:28:26.470Z,16.00
2022-09-14T08:30:57.637Z,16.10
2022-09-14T08:33:26.418Z,16.20
2022-09-14T08:35:58.154Z,16.30
2022-09-14T08:38:29.392Z,16.20
2022-09-14T08:41:07.356Z,16.30
2022-09-14T08:43:36.796Z,16.30
2022-09-14T08:46:10.566Z,16.30
2022-09-14T08:48:46.150Z,16.30
2022-09-14T08:51:15.494Z,16.10
2022-09-14T08:53:45.780Z,16.00
2022-09-14T08:56:19.755Z,16.00
2022-09-14T08:59:17.455Z,16.00
2022-09-14T09:01:55.741Z,16.10
2022-09-14T09:04:38.802Z,16.00
2022-09-14T09:07:18.134Z,16.10
2022-09-14T09:09:49.786Z,16.10
2022-09-14T09:12:22.905Z,16.20
2022-09-14T09:14:56.499Z,16.10
2022-09-14T09:17:35.606Z,16.10
2022-09-14T09:20:14.243Z,16.00
2022-09-14T09:22:49.541Z,15.90
2022-09-14T09:25:25.119Z,15.70
2022-09-14T09:28:00.331Z,15.70
2022-09-14T09:30:31.096Z,15.70
2022-09-14T09:33:00.252Z,15.60
2022-09-14T09:35:48.221Z,15.80
2022-09-14T09:38:25.084Z,15.70
2022-09-14T09:40:56.498Z,15.80
2022-09-14T09:43:45.776Z,15.80
2022-09-14T09:46:17.351Z,15.90
2022-09-14T09:48:48.495Z,15.90
2022-09-14T09:51:23.826Z,16.00
2022-09-14T09:53:54.716Z,16.00
2022-09-14T09:56:27.191Z,15.90
2022-09-14T09:58:57.993Z,16.00
2022-09-14T10:01:30.856Z,15.90
2022-09-14T10:04:07.487Z,16.00
2022-09-14T10:06:44.499Z,16.00
2022-09-14T10:09:18.855Z,16.00
2022-09-14T10:11:49.530Z,16.00
2022-09-14T10:14:27.779Z,16.00
2022-09-14T10:17:08.050Z,16.00
2022-09-14T10:19:36.919Z,16.10
2022-09-14T10:22:26.505Z,16.20
2022-09-14T10:24:58.784Z,16.20
2022-09-14T10:27:40.324Z,16.10
2022-09-14T10:30:18.420Z,16.10
2022-09-14T10:32:52.644Z,16.20
2022-09-14T10:35:24.267Z,16.20
2022-09-14T10:38:21.431Z,16.20
2022-09-14T10:41:00.671Z,16.20
2022-09-14T10:43:45.707Z,16.20
2022-09-14T10:46:32.015Z,16.30
2022-09-14T10:49:19.720Z,16.30
2022-09-14T10:51:58.285Z,16.20
2022-09-14T10:54:56.905Z,16.10
2022-09-14T10:57:35.367Z,16.10
2022-09-14T11:00:10.023Z,16.10
2022-09-14T11:03:01.442Z,16.10
2022-09-14T11:05:36.569Z,16.10
2022-09-14T11:08:17.010Z,16.10
2022-09-14T11:11:09.288Z,16.10
2022-09-14T11:14:00.695Z,16.20
2022-09-14T11:16:53.477Z,16.20
2022-09-14T11:19:34.188Z,16.10
2022-09-14T11:22:10.912Z,16.10
2022-09-14T11:24:45.097Z,16.20
2022-09-14T11:27:23.458Z,16.20
2022-09-14T11:29:56.571Z,16.30
2022-09-14T11:32:31.985Z,16.30
2022-09-14T11:35:06.671Z,16.30
2022-09-14T11:37:45.820Z,16.20
2022-09-14T11:40:25.898Z,16.20
2022-09-14T11:43:07.213Z,16.30
2022-09-14T11:45:40.610Z,16.30
2022-09-14T11:48:41.422Z,16.30
2022-09-14T11:51:11.854Z,16.40
2022-09-14T11:53:43.797Z,16.50
2022-09-14T11:56:26.866Z,16.30
2022-09-14T11:58:58.824Z,16.20
2022-09-14T12:01:37.499Z,16.30
2022-09-14T12:04:18.186Z,16.40
2022-09-14T12:06:59.053Z,16.40
2022-09-14T12:09:50.363Z,16.30
2022-09-14T12:12:39.144Z,16.20
2022-09-14T12:15:19.342Z,16.20
2022-09-14T12:17:48.668Z,16.20
2022-09-14T12:20:44.309Z,16.10
2022-09-14T12:23:29.136Z,16.00
2022-09-14T12:26:14.493Z,16.00
2022-09-14T12:28:49.574Z,16.00
2022-09-14T12:32:02.947Z,16.00
2022-09-14T12:34:33.661Z,16.00
2022-09-14T12:37:33.754Z,15.90
2022-09-14T12:50:43.334Z,15.80
2022-09-14T12:53:29.630Z,15.70
2022-09-14T12:56:05.935Z,15.50
2022-09-14T12:58:56.489Z,15.40
2022-09-14T13:01:36.763Z,15.50
2022-09-14T13:04:06.437Z,15.40
2022-09-14T13:06:44.093Z,15.40
2022-09-14T13:09:19.558Z,15.40
2022-09-14T13:11:55.203Z,15.30
2022-09-14T13:14:26.830Z,15.40
2022-09-14T13:17:06.913Z,15.40
2022-09-14T13:19:36.119Z,15.60
2022-09-14T13:22:21.456Z,15.60
2022-09-14T13:24:51.589Z,15.60
2022-09-14T13:27:31.270Z,15.70
2022-09-14T13:30:02.768Z,15.60
2022-09-14T13:32:32.004Z,15.60
2022-09-14T13:35:06.181Z,15.50
2022-09-14T13:37:40.465Z,15.60
2022-09-14T13:40:19.783Z,15.70
2022-09-14T13:42:48.739Z,15.70
2022-09-14T13:45:18.055Z,15.70
2022-09-14T13:47:50.474Z,15.90
2022-09-14T13:50:19.751Z,16.00
2022-09-14T13:53:01.820Z,16.10
2022-09-14T13:55:45.257Z,16.30
2022-09-14T13:58:25.658Z,16.50
2022-09-14T14:00:57.822Z,16.40
2022-09-14T14:03:33.824Z,16.50
2022-09-14T14:06:23.914Z,16.60
2022-09-14T14:09:03.107Z,16.80
2022-09-14T14:11:37.854Z,16.90
2022-09-14T14:14:15.309Z,16.80
2022-09-14T14:16:44.833Z,16.80
2022-09-14T14:19:29.729Z,16.80
2022-09-14T14:22:17.706Z,16.90
2022-09-14T14:25:12.318Z,17.00
2022-09-14T14:27:40.266Z,17.10
2022-09-14T14:30:15.524Z,17.10
2022-09-14T14:32:44.235Z,17.30
2022-09-14T14:35:17.603Z,17.20
2022-09-14T14:37:46.420Z,17.20
2022-09-14T14:40:18.746Z,17.40
2022-09-14T14:42:48.347Z,17.50
2022-09-14T14:45:19.401Z,17.50
2022-09-14T14:47:48.423Z,17.50
2022-09-14T14:50:20.931Z,17.80
2022-09-14T14:52:50.452Z,17.70
2022-09-14T14:55:21.387Z,17.60
2022-09-14T14:57:50.224Z,17.60
2022-09-14T15:00:21.967Z,17.50
2022-09-14T15:02:51.269Z,17.50
2022-09-14T15:05:20.804Z,17.70
2022-09-14T15:07:52.295Z,17.80
2022-09-14T15:10:23.841Z,17.90
2022-09-14T15:12:52.950Z,18.10
2022-09-14T15:15:26.866Z,18.20
2022-09-14T15:17:55.855Z,18.10
2022-09-14T15:20:24.685Z,18.10
2022-09-14T15:22:54.345Z,17.90
2022-09-14T15:25:25.278Z,17.70
2022-09-14T15:27:54.119Z,17.70
2022-09-14T15:30:23.351Z,17.70
2022-09-14T15:32:52.190Z,17.50
2022-09-14T15:35:22.282Z,17.50
2022-09-14T15:37:51.457Z,17.30
2022-09-14T15:40:20.563Z,17.20
2022-09-14T15:42:51.139Z,17.10
2022-09-14T15:45:24.505Z,17.20
2022-09-14T15:47:53.490Z,17.20
2022-09-14T15:50:22.823Z,17.00
2022-09-14T15:52:52.238Z,16.70
2022-09-14T15:55:21.702Z,16.50
2022-09-14T15:57:52.876Z,16.30
2022-09-14T16:00:22.123Z,16.30
2022-09-14T16:02:52.163Z,16.20
2022-09-14T16:05:22.055Z,16.20
2022-09-14T16:07:56.498Z,16.20
2022-09-14T16:10:32.277Z,16.20
2022-09-14T16:13:04.863Z,16.20
2022-09-14T16:15:34.546Z,16.20
2022-09-14T16:18:04.631Z,16.10
2022-09-14T16:20:39.888Z,16.10
2022-09-14T16:23:09.790Z,16.00
2022-09-14T16:25:40.980Z,16.00
2022-09-14T16:28:11.898Z,16.00
2022-09-14T16:30:43.380Z,16.00
2022-09-14T16:33:12.315Z,15.90
2022-09-14T16:35:41.243Z,15.80
2022-09-14T16:38:11.015Z,15.80
2022-09-14T16:40:42.909Z,15.70
2022-09-14T16:43:14.085Z,15.70
2022-09-14T16:45:42.818Z,15.60
2022-09-14T16:48:11.514Z,15.70
2022-09-14T16:50:40.751Z,15.70
2022-09-14T16:53:09.624Z,15.70
2022-09-14T16:55:39.010Z,15.60
2022-09-14T16:58:12.174Z,15.60
2022-09-14T17:00:44.400Z,15.60
2022-09-14T17:03:13.532Z,15.40
2022-09-14T17:05:42.938Z,15.40
2022-09-14T17:08:12.210Z,15.50
2022-09-14T17:10:41.213Z,15.60
2022-09-14T17:13:10.147Z,15.70
2022-09-14T17:15:39.690Z,15.70
2022-09-14T17:18:10.003Z,15.70
2022-09-14T17:20:38.667Z,15.70
2022-09-14T17:23:08.349Z,15.70
2022-09-14T17:25:37.710Z,15.70
2022-09-14T17:28:06.737Z,15.70
2022-09-14T17:30:36.170Z,15.70
2022-09-14T17:33:05.000Z,15.70
2022-09-14T17:35:35.365Z,15.60
2022-09-14T17:38:04.373Z,15.50
2022-09-14T17:40:33.659Z,15.30
2022-09-14T17:43:02.706Z,15.50
2022-09-14T17:53:22.324Z,15.30
2022-09-14T17:55:51.377Z,15.30
2022-09-14T17:58:20.588Z,15.30
2022-09-14T18:00:50.795Z,15.20
2022-09-14T18:03:20.118Z,15.10
2022-09-14T18:05:56.179Z,15.00
2022-09-14T18:08:26.998Z,15.00
2022-09-14T18:10:57.232Z,15.00
2022-09-14T18:13:26.410Z,14.80
2022-09-14T18:15:58.831Z,14.80
2022-09-14T18:18:27.862Z,14.60
2022-09-14T18:20:56.861Z,14.70
2022-09-14T18:23:27.586Z,14.50
2022-09-14T18:25:57.984Z,14.50
2022-09-14T18:28:27.821Z,14.50
2022-09-14T18:31:02.391Z,14.50
2022-09-14T18:33:31.952Z,14.40
2022-09-14T18:36:01.054Z,14.30
2022-09-14T18:38:31.806Z,14.40
2022-09-14T18:41:05.810Z,14.30
2022-09-14T18:43:35.038Z,14.30
2022-09-14T18:46:08.167Z,14.20
2022-09-14T18:48:39.047Z,14.10
2022-09-14T18:51:09.163Z,14.10
2022-09-14T18:53:40.413Z,14.10
2022-09-14T18:56:15.055Z,14.20
2022-09-14T18:58:46.772Z,14.20
2022-09-14T19:01:16.316Z,14.20
2022-09-14T19:03:53.424Z,14.30
2022-09-14T19:06:37.814Z,14.20
2022-09-14T19:09:24.636Z,14.10
2022-09-14T19:11:54.209Z,14.00
2022-09-14T19:14:23.490Z,13.90
2022-09-14T19:16:52.647Z,13.80
2022-09-14T19:19:21.782Z,13.80
2022-09-14T19:21:50.800Z,13.90
2022-09-14T19:24:21.191Z,13.80
2022-09-14T19:26:52.318Z,13.70
2022-09-14T19:29:23.491Z,13.90
2022-09-14T19:31:53.397Z,13.80
2022-09-14T19:34:24.476Z,13.70
2022-09-14T19:36:53.988Z,13.80
2022-09-14T19:39:26.158Z,14.00
2022-09-14T19:41:55.691Z,14.00
2022-09-14T19:44:25.297Z,13.90
2022-09-14T19:46:54.837Z,13.90
2022-09-14T19:49:27.911Z,13.70
2022-09-14T19:51:57.618Z,13.60
2022-09-14T19:54:28.383Z,13.50
2022-09-14T19:56:57.613Z,13.70
2022-09-14T19:59:27.031Z,13.70
2022-09-14T20:01:58.099Z,13.60
2022-09-14T20:04:30.122Z,13.40
2022-09-14T20:07:02.357Z,13.30
2022-09-14T20:09:37.249Z,13.30
2022-09-14T20:12:07.135Z,13.40
2022-09-14T20:14:37.123Z,13.20
2022-09-14T20:17:08.007Z,13.10
2022-09-14T20:19:44.266Z,13.00
2022-09-14T20:22:16.982Z,12.90
2022-09-14T20:24:49.771Z,12.70
2022-09-14T20:27:23.617Z,12.60
2022-09-14T20:29:53.348Z,12.60
2022-09-14T20:32:23.146Z,12.60
2022-09-14T20:34:53.004Z,12.60
2022-09-14T20:37:22.579Z,12.50
2022-09-14T20:39:53.320Z,12.50
2022-09-14T20:42:22.344Z,12.40
2022-09-14T20:44:51.000Z,12.50
2022-09-14T20:47:20.058Z,12.40
2022-09-14T20:49:49.365Z,12.40
2022-09-14T20:52:19.824Z,12.40
2022-09-14T20:54:49.106Z,12.40
2022-09-14T20:57:19.885Z,12.30
2022-09-14T20:59:48.596Z,12.20
2022-09-14T21:02:17.488Z,12.10
2022-09-14T21:04:47.052Z,12.00
2022-09-14T21:07:16.689Z,12.00
2022-09-14T21:09:45.588Z,11.90
2022-09-14T21:12:15.618Z,11.90
2022-09-14T21:14:48.197Z,12.10
2022-09-14T21:17:17.865Z,12.30
2022-09-14T21:19:46.961Z,12.40
2022-09-14T21:22:15.873Z,12.30
2022-09-14T21:24:45.100Z,12.30
2022-09-14T21:27:14.170Z,12.10
2022-09-14T21:29:44.865Z,12.10
2022-09-14T21:32:13.545Z,12.40
2022-09-14T21:34:42.434Z,12.30
2022-09-14T21:37:11.799Z,12.20
2022-09-14T21:39:40.603Z,12.10
2022-09-14T21:42:09.458Z,12.20
2022-09-14T21:44:39.166Z,12.20
2022-09-14T21:47:09.829Z,12.10
2022-09-14T21:49:39.340Z,12.00
2022-09-14T21:52:09.030Z,11.90
2022-09-14T21:54:38.142Z,11.90
2022-09-14T21:57:07.228Z,11.80
2022-09-14T21:59:35.968Z,11.90
2022-09-14T22:02:04.714Z,12.10
2022-09-14T22:04:35.493Z,12.20
2022-09-14T22:07:04.429Z,12.30
2022-09-14T22:09:32.954Z,12.40
2022-09-14T22:12:01.712Z,12.50
2022-09-14T22:14:31.318Z,12.50
2022-09-14T22:16:59.908Z,12.60
2022-09-14T22:19:31.205Z,12.60
2022-09-14T22:22:01.494Z,12.70
2022-09-14T22:24:37.884Z,12.80
2022-09-14T22:27:09.045Z,12.90
2022-09-14T22:29:38.553Z,13.10
2022-09-14T22:32:10.889Z,13.30
2022-09-14T22:34:41.960Z,13.40
2022-09-14T22:37:12.638Z,13.40
2022-09-14T22:39:41.245Z,13.50
2022-09-14T22:42:09.986Z,13.60
2022-09-14T22:44:38.648Z,13.70
2022-09-14T22:47:08.647Z,13.80
2022-09-14T22:49:37.457Z,13.80
2022-09-14T22:52:06.234Z,13.80
2022-09-14T22:54:36.734Z,13.70
2022-09-14T22:57:05.509Z,13.90
2022-09-14T22:59:34.377Z,13.80
2022-09-14T23:02:03.827Z,13.70
2022-09-14T23:04:33.056Z,13.60
2022-09-14T23:07:02.694Z,13.40
2022-09-14T23:09:32.175Z,13.20
2022-09-14T23:12:03.015Z,13.00
2022-09-14T23:14:31.857Z,13.00
2022-09-14T23:17:00.638Z,13.20
2022-09-14T23:19:31.305Z,13.20
2022-09-14T23:22:01.301Z,13.00
2022-09-14T23:24:30.066Z,12.90
2022-09-14T23:26:58.716Z,12.90
2022-09-14T23:29:29.222Z,12.90
2022-09-14T23:31:58.141Z,12.80
2022-09-14T23:34:27.024Z,12.80
2022-09-14T23:36:57.228Z,12.90
2022-09-14T23:39:27.188Z,12.90
2022-09-14T23:41:55.973Z,12.90
2022-09-14T23:44:24.735Z,12.80
2022-09-14T23:46:55.081Z,12.80
2022-09-14T23:49:23.831Z,12.70
2022-09-14T23:51:52.514Z,12.60
2022-09-14T23:54:21.306Z,12.50
2022-09-14T23:56:49.956Z,12.40
2022-09-14T23:59:18.657Z,12.40
